sensor_id;sensor_type;location;lat;lon;timestamp;temperature;humidity
11304;DHT22;5707;49.588;12.148;2022-09-16T00:00:57;11.80;99.90
11304;DHT22;5707;49.588;12.148;2022-09-16T00:03:37;11.80;99.90
11304;DHT22;5707;49.588;12.148;2022-09-16T00:06:18;11.80;99.90
11304;DHT22;5707;49.588;12.148;2022-09-16T00:08:58;11.80;99.90
11304;DHT22;5707;49.588;12.148;2022-09-16T00:11:39;11.90;99.90
11304;DHT22;5707;49.588;12.148;2022-09-16T00:14:19;11.80;99.90
11304;DHT22;5707;49.588;12.148;2022-09-16T00:16:59;11.90;99.90
11304;DHT22;5707;49.588;12.148;2022-09-16T00:19:39;11.90;99.90
11304;DHT22;5707;49.588;12.148;2022-09-16T00:22:19;11.90;99.90
11304;DHT22;5707;49.588;12.148;2022-09-16T00:24:58;11.90;99.90
11304;DHT22;5707;49.588;12.148;2022-09-16T00:27:38;11.90;99.90
11304;DHT22;5707;49.588;12.148;2022-09-16T00:30:18;11.90;99.90
11304;DHT22;5707;49.588;12.148;2022-09-16T00:32:58;11.90;99.90
11304;DHT22;5707;49.588;12.148;2022-09-16T00:35:38;11.90;99.90
11304;DHT22;5707;49.588;12.148;2022-09-16T00:38:18;12.00;99.90
11304;DHT22;5707;49.588;12.148;2022-09-16T00:40:57;12.00;99.90
11304;DHT22;5707;49.588;12.148;2022-09-16T00:43:48;12.00;99.90
11304;DHT22;5707;49.588;12.148;2022-09-16T00:46:33;12.00;99.90
11304;DHT22;5707;49.588;12.148;2022-09-16T00:49:16;12.00;99.90
11304;DHT22;5707;49.588;12.148;2022-09-16T00:51:58;12.00;99.90
11304;DHT22;5707;49.588;12.148;2022-09-16T00:54:39;12.00;99.90
11304;DHT22;5707;49.588;12.148;2022-09-16T00:57:20;12.00;99.90
11304;DHT22;5707;49.588;12.148;2022-09-16T01:00:00;12.00;99.90
11304;DHT22;5707;49.588;12.148;2022-09-16T01:02:40;11.90;99.90
11304;DHT22;5707;49.588;12.148;2022-09-16T01:05:22;11.80;99.90
11304;DHT22;5707;49.588;12.148;2022-09-16T01:08:04;11.80;99.90
11304;DHT22;5707;49.588;12.148;2022-09-16T01:10:44;11.70;99.90
11304;DHT22;5707;49.588;12.148;2022-09-16T01:13:24;11.70;99.90
11304;DHT22;5707;49.588;12.148;2022-09-16T01:16:05;11.70;99.90
11304;DHT22;5707;49.588;12.148;2022-09-16T01:18:47;11.70;99.90
11304;DHT22;5707;49.588;12.148;2022-09-16T01:21:37;11.60;99.90
11304;DHT22;5707;49.588;12.148;2022-09-16T01:24:27;11.60;99.90
11304;DHT22;5707;49.588;12.148;2022-09-16T01:30:16;11.60;99.90
11304;DHT22;5707;49.588;12.148;2022-09-16T01:33:00;11.60;99.90
11304;DHT22;5707;49.588;12.148;2022-09-16T01:35:45;11.50;99.90
11304;DHT22;5707;49.588;12.148;2022-09-16T01:38:32;11.40;99.90
11304;DHT22;5707;49.588;12.148;2022-09-16T01:41:17;11.40;99.90
11304;DHT22;5707;49.588;12.148;2022-09-16T01:44:00;11.30;99.90
11304;DHT22;5707;49.588;12.148;2022-09-16T01:46:43;11.30;99.90
11304;DHT22;5707;49.588;12.148;2022-09-16T01:49:25;11.20;99.90
11304;DHT22;5707;49.588;12.148;2022-09-16T01:52:13;11.10;99.90
11304;DHT22;5707;49.588;12.148;2022-09-16T01:54:55;11.10;99.90
11304;DHT22;5707;49.588;12.148;2022-09-16T01:57:38;11.00;99.90
11304;DHT22;5707;49.588;12.148;2022-09-16T02:00:20;11.00;99.90
11304;DHT22;5707;49.588;12.148;2022-09-16T02:03:01;11.00;99.90
11304;DHT22;5707;49.588;12.148;2022-09-16T02:05:43;11.00;99.90
11304;DHT22;5707;49.588;12.148;2022-09-16T02:08:28;11.00;99.90
11304;DHT22;5707;49.588;12.148;2022-09-16T02:11:09;11.00;99.90
11304;DHT22;5707;49.588;12.148;2022-09-16T02:13:56;11.00;99.90
11304;DHT22;5707;49.588;12.148;2022-09-16T02:16:38;11.00;99.90
11304;DHT22;5707;49.588;12.148;2022-09-16T02:19:20;11.00;99.90
11304;DHT22;5707;49.588;12.148;2022-09-16T02:22:02;11.00;99.90
11304;DHT22;5707;49.588;12.148;2022-09-16T02:24:43;11.00;99.90
11304;DHT22;5707;49.588;12.148;2022-09-16T02:27:26;11.10;99.90
11304;DHT22;5707;49.588;12.148;2022-09-16T02:30:09;11.10;99.90
11304;DHT22;5707;49.588;12.148;2022-09-16T02:32:51;11.10;99.90
11304;DHT22;5707;49.588;12.148;2022-09-16T02:35:33;11.10;99.90
11304;DHT22;5707;49.588;12.148;2022-09-16T02:38:15;11.20;99.90
11304;DHT22;5707;49.588;12.148;2022-09-16T02:40:58;11.20;99.90
11304;DHT22;5707;49.588;12.148;2022-09-16T02:43:39;11.20;99.90
11304;DHT22;5707;49.588;12.148;2022-09-16T02:46:21;11.20;99.90
11304;DHT22;5707;49.588;12.148;2022-09-16T02:49:03;11.20;99.90
11304;DHT22;5707;49.588;12.148;2022-09-16T02:51:48;11.20;99.90
11304;DHT22;5707;49.588;12.148;2022-09-16T02:54:35;11.20;99.90
11304;DHT22;5707;49.588;12.148;2022-09-16T02:57:18;11.20;99.90
11304;DHT22;5707;49.588;12.148;2022-09-16T02:59:57;11.20;99.90
11304;DHT22;5707;49.588;12.148;2022-09-16T03:02:37;11.10;99.90
11304;DHT22;5707;49.588;12.148;2022-09-16T03:05:17;11.10;99.90
11304;DHT22;5707;49.588;12.148;2022-09-16T03:07:57;11.10;99.90
11304;DHT22;5707;49.588;12.148;2022-09-16T03:10:40;11.10;99.90
11304;DHT22;5707;49.588;12.148;2022-09-16T03:13:23;11.10;99.90
11304;DHT22;5707;49.588;12.148;2022-09-16T03:16:07;11.10;99.90
11304;DHT22;5707;49.588;12.148;2022-09-16T03:18:53;11.10;99.90
11304;DHT22;5707;49.588;12.148;2022-09-16T03:21:37;11.00;99.90
11304;DHT22;5707;49.588;12.148;2022-09-16T03:24:22;11.00;99.90
11304;DHT22;5707;49.588;12.148;2022-09-16T03:27:08;11.10;99.90
11304;DHT22;5707;49.588;12.148;2022-09-16T03:29:50;11.10;99.90
11304;DHT22;5707;49.588;12.148;2022-09-16T03:32:35;11.10;99.90
11304;DHT22;5707;49.588;12.148;2022-09-16T03:35:17;11.10;99.90
11304;DHT22;5707;49.588;12.148;2022-09-16T03:37:58;11.00;99.90
11304;DHT22;5707;49.588;12.148;2022-09-16T03:40:40;11.00;99.90
11304;DHT22;5707;49.588;12.148;2022-09-16T03:43:21;11.10;99.90
11304;DHT22;5707;49.588;12.148;2022-09-16T03:46:01;11.10;99.90
11304;DHT22;5707;49.588;12.148;2022-09-16T03:48:41;11.10;99.90
11304;DHT22;5707;49.588;12.148;2022-09-16T03:51:21;11.10;99.90
11304;DHT22;5707;49.588;12.148;2022-09-16T03:54:02;11.00;99.90
11304;DHT22;5707;49.588;12.148;2022-09-16T03:56:42;11.00;99.90
11304;DHT22;5707;49.588;12.148;2022-09-16T03:59:22;11.00;99.90
11304;DHT22;5707;49.588;12.148;2022-09-16T04:02:01;11.00;99.90
11304;DHT22;5707;49.588;12.148;2022-09-16T04:04:41;11.00;99.90
11304;DHT22;5707;49.588;12.148;2022-09-16T04:07:21;11.00;99.90
11304;DHT22;5707;49.588;12.148;2022-09-16T04:10:01;11.00;99.90
11304;DHT22;5707;49.588;12.148;2022-09-16T04:12:41;10.90;99.90
11304;DHT22;5707;49.588;12.148;2022-09-16T04:15:21;10.90;99.90
11304;DHT22;5707;49.588;12.148;2022-09-16T04:18:00;10.90;99.90
11304;DHT22;5707;49.588;12.148;2022-09-16T04:20:40;10.90;99.90
11304;DHT22;5707;49.588;12.148;2022-09-16T04:23:20;10.90;99.90
11304;DHT22;5707;49.588;12.148;2022-09-16T04:26:02;10.90;99.90
11304;DHT22;5707;49.588;12.148;2022-09-16T04:28:41;10.80;99.90
11304;DHT22;5707;49.588;12.148;2022-09-16T04:31:21;10.70;99.90
11304;DHT22;5707;49.588;12.148;2022-09-16T04:34:01;10.60;99.90
11304;DHT22;5707;49.588;12.148;2022-09-16T04:36:41;10.50;99.90
11304;DHT22;5707;49.588;12.148;2022-09-16T04:39:21;10.40;99.90
11304;DHT22;5707;49.588;12.148;2022-09-16T04:42:00;10.40;99.90
11304;DHT22;5707;49.588;12.148;2022-09-16T04:44:42;10.40;99.90
11304;DHT22;5707;49.588;12.148;2022-09-16T04:47:22;10.30;99.90
11304;DHT22;5707;49.588;12.148;2022-09-16T04:50:02;10.20;99.90
11304;DHT22;5707;49.588;12.148;2022-09-16T04:52:41;10.10;99.90
11304;DHT22;5707;49.588;12.148;2022-09-16T04:55:21;10.10;99.90
11304;DHT22;5707;49.588;12.148;2022-09-16T04:58:01;10.20;99.90
11304;DHT22;5707;49.588;12.148;2022-09-16T05:00:41;10.30;99.90
11304;DHT22;5707;49.588;12.148;2022-09-16T05:03:21;10.30;99.90
11304;DHT22;5707;49.588;12.148;2022-09-16T05:06:04;10.40;99.90
11304;DHT22;5707;49.588;12.148;2022-09-16T05:08:45;10.40;99.90
11304;DHT22;5707;49.588;12.148;2022-09-16T05:11:25;10.50;99.90
11304;DHT22;5707;49.588;12.148;2022-09-16T05:14:07;10.50;99.90
11304;DHT22;5707;49.588;12.148;2022-09-16T05:16:48;10.60;99.90
11304;DHT22;5707;49.588;12.148;2022-09-16T05:19:28;10.60;99.90
11304;DHT22;5707;49.588;12.148;2022-09-16T05:22:09;10.60;99.90
11304;DHT22;5707;49.588;12.148;2022-09-16T05:24:49;10.70;99.90
11304;DHT22;5707;49.588;12.148;2022-09-16T05:27:30;10.70;99.90
11304;DHT22;5707;49.588;12.148;2022-09-16T05:30:11;10.70;99.90
11304;DHT22;5707;49.588;12.148;2022-09-16T05:32:53;10.70;99.90
11304;DHT22;5707;49.588;12.148;2022-09-16T05:35:33;10.80;99.90
11304;DHT22;5707;49.588;12.148;2022-09-16T05:38:14;10.90;99.90
11304;DHT22;5707;49.588;12.148;2022-09-16T05:40:58;11.00;99.90
11304;DHT22;5707;49.588;12.148;2022-09-16T05:43:37;11.20;99.90
11304;DHT22;5707;49.588;12.148;2022-09-16T05:46:18;11.30;99.90
11304;DHT22;5707;49.588;12.148;2022-09-16T05:48:59;11.40;99.90
11304;DHT22;5707;49.588;12.148;2022-09-16T05:51:38;11.50;99.90
11304;DHT22;5707;49.588;12.148;2022-09-16T05:54:20;11.60;99.90
11304;DHT22;5707;49.588;12.148;2022-09-16T05:57:03;11.70;99.90
11304;DHT22;5707;49.588;12.148;2022-09-16T05:59:43;11.80;99.90
11304;DHT22;5707;49.588;12.148;2022-09-16T06:02:22;11.90;99.90
11304;DHT22;5707;49.588;12.148;2022-09-16T06:05:02;12.00;99.90
11304;DHT22;5707;49.588;12.148;2022-09-16T06:07:42;12.10;99.90
11304;DHT22;5707;49.588;12.148;2022-09-16T06:10:22;12.20;99.90
11304;DHT22;5707;49.588;12.148;2022-09-16T06:13:02;12.30;99.90
11304;DHT22;5707;49.588;12.148;2022-09-16T06:15:48;12.40;99.90
11304;DHT22;5707;49.588;12.148;2022-09-16T06:18:28;12.40;99.90
11304;DHT22;5707;49.588;12.148;2022-09-16T06:21:09;12.40;99.90
11304;DHT22;5707;49.588;12.148;2022-09-16T06:23:51;12.50;99.90
11304;DHT22;5707;49.588;12.148;2022-09-16T06:26:31;12.50;99.90
11304;DHT22;5707;49.588;12.148;2022-09-16T06:29:11;12.60;99.90
11304;DHT22;5707;49.588;12.148;2022-09-16T06:31:50;12.80;99.90
11304;DHT22;5707;49.588;12.148;2022-09-16T06:34:30;13.10;99.90
11304;DHT22;5707;49.588;12.148;2022-09-16T06:37:10;13.40;99.90
11304;DHT22;5707;49.588;12.148;2022-09-16T06:39:51;13.50;99.90
11304;DHT22;5707;49.588;12.148;2022-09-16T06:42:31;13.40;99.90
11304;DHT22;5707;49.588;12.148;2022-09-16T06:45:16;13.40;99.90
11304;DHT22;5707;49.588;12.148;2022-09-16T06:47:58;13.40;99.90
11304;DHT22;5707;49.588;12.148;2022-09-16T06:50:39;13.60;99.90
11304;DHT22;5707;49.588;12.148;2022-09-16T06:53:19;13.80;99.90
11304;DHT22;5707;49.588;12.148;2022-09-16T06:56:00;14.00;99.90
11304;DHT22;5707;49.588;12.148;2022-09-16T06:58:40;14.30;99.90
11304;DHT22;5707;49.588;12.148;2022-09-16T07:01:22;14.80;99.90
11304;DHT22;5707;49.588;12.148;2022-09-16T07:04:03;15.20;99.90
11304;DHT22;5707;49.588;12.148;2022-09-16T07:06:44;15.50;99.90
11304;DHT22;5707;49.588;12.148;2022-09-16T07:09:24;15.70;99.90
11304;DHT22;5707;49.588;12.148;2022-09-16T07:12:05;15.80;99.90
11304;DHT22;5707;49.588;12.148;2022-09-16T07:14:45;15.80;99.90
11304;DHT22;5707;49.588;12.148;2022-09-16T07:17:25;16.10;99.90
11304;DHT22;5707;49.588;12.148;2022-09-16T07:20:07;16.30;99.90
11304;DHT22;5707;49.588;12.148;2022-09-16T07:22:48;16.30;99.90
11304;DHT22;5707;49.588;12.148;2022-09-16T07:25:31;16.00;99.90
11304;DHT22;5707;49.588;12.148;2022-09-16T07:28:11;15.90;99.90
11304;DHT22;5707;49.588;12.148;2022-09-16T07:30:50;16.00;99.90
11304;DHT22;5707;49.588;12.148;2022-09-16T07:33:31;16.10;99.90
11304;DHT22;5707;49.588;12.148;2022-09-16T07:36:12;16.20;99.90
11304;DHT22;5707;49.588;12.148;2022-09-16T07:38:53;16.50;99.90
11304;DHT22;5707;49.588;12.148;2022-09-16T07:41:35;16.70;99.90
11304;DHT22;5707;49.588;12.148;2022-09-16T07:44:16;16.50;99.90
11304;DHT22;5707;49.588;12.148;2022-09-16T07:46:57;16.40;99.90
11304;DHT22;5707;49.588;12.148;2022-09-16T07:49:37;16.20;99.90
11304;DHT22;5707;49.588;12.148;2022-09-16T07:52:17;16.30;99.90
11304;DHT22;5707;49.588;12.148;2022-09-16T07:54:57;16.30;99.90
11304;DHT22;5707;49.588;12.148;2022-09-16T07:57:37;16.20;99.90
11304;DHT22;5707;49.588;12.148;2022-09-16T08:00:16;16.20;99.90
11304;DHT22;5707;49.588;12.148;2022-09-16T08:02:57;16.30;99.90
11304;DHT22;5707;49.588;12.148;2022-09-16T08:05:38;16.60;99.90
11304;DHT22;5707;49.588;12.148;2022-09-16T08:08:18;16.90;99.90
11304;DHT22;5707;49.588;12.148;2022-09-16T08:10:58;16.80;99.90
11304;DHT22;5707;49.588;12.148;2022-09-16T08:13:37;16.60;99.90
11304;DHT22;5707;49.588;12.148;2022-09-16T08:16:18;16.60;99.90
11304;DHT22;5707;49.588;12.148;2022-09-16T08:18:58;16.60;99.90
11304;DHT22;5707;49.588;12.148;2022-09-16T08:21:38;16.70;99.90
11304;DHT22;5707;49.588;12.148;2022-09-16T08:24:18;16.60;99.90
11304;DHT22;5707;49.588;12.148;2022-09-16T08:26:58;16.80;99.90
11304;DHT22;5707;49.588;12.148;2022-09-16T08:29:38;16.70;99.90
11304;DHT22;5707;49.588;12.148;2022-09-16T08:32:18;16.40;99.90
11304;DHT22;5707;49.588;12.148;2022-09-16T08:34:57;16.00;99.90
11304;DHT22;5707;49.588;12.148;2022-09-16T08:37:37;15.80;99.90
11304;DHT22;5707;49.588;12.148;2022-09-16T08:40:19;16.40;99.90
11304;DHT22;5707;49.588;12.148;2022-09-16T08:43:02;16.90;99.90
11304;DHT22;5707;49.588;12.148;2022-09-16T08:45:46;17.10;99.90
11304;DHT22;5707;49.588;12.148;2022-09-16T08:48:31;17.10;99.90
11304;DHT22;5707;49.588;12.148;2022-09-16T08:51:14;17.10;99.90
11304;DHT22;5707;49.588;12.148;2022-09-16T08:53:56;17.00;99.90
11304;DHT22;5707;49.588;12.148;2022-09-16T08:56:46;17.20;99.90
11304;DHT22;5707;49.588;12.148;2022-09-16T08:59:27;17.20;99.90
11304;DHT22;5707;49.588;12.148;2022-09-16T09:02:37;17.30;99.90
11304;DHT22;5707;49.588;12.148;2022-09-16T09:05:20;17.10;99.90
11304;DHT22;5707;49.588;12.148;2022-09-16T09:08:18;17.30;99.90
11304;DHT22;5707;49.588;12.148;2022-09-16T09:11:01;17.70;99.90
11304;DHT22;5707;49.588;12.148;2022-09-16T09:13:49;18.40;99.90
11304;DHT22;5707;49.588;12.148;2022-09-16T09:16:35;18.60;99.90
11304;DHT22;5707;49.588;12.148;2022-09-16T09:19:25;18.60;99.90
11304;DHT22;5707;49.588;12.148;2022-09-16T09:22:12;18.40;99.90
11304;DHT22;5707;49.588;12.148;2022-09-16T09:24:59;18.30;99.90
11304;DHT22;5707;49.588;12.148;2022-09-16T09:27:43;18.30;99.90
11304;DHT22;5707;49.588;12.148;2022-09-16T09:30:25;18.50;99.90
11304;DHT22;5707;49.588;12.148;2022-09-16T09:33:12;18.60;99.90
11304;DHT22;5707;49.588;12.148;2022-09-16T09:36:00;18.80;99.90
11304;DHT22;5707;49.588;12.148;2022-09-16T09:38:46;18.90;99.90
11304;DHT22;5707;49.588;12.148;2022-09-16T09:41:30;19.10;99.90
11304;DHT22;5707;49.588;12.148;2022-09-16T09:44:21;19.30;98.90
11304;DHT22;5707;49.588;12.148;2022-09-16T09:47:06;19.60;94.30
11304;DHT22;5707;49.588;12.148;2022-09-16T09:49:50;19.90;91.20
11304;DHT22;5707;49.588;12.148;2022-09-16T09:52:34;19.70;77.20
11304;DHT22;5707;49.588;12.148;2022-09-16T09:55:17;19.60;84.30
11304;DHT22;5707;49.588;12.148;2022-09-16T09:58:00;19.80;87.00
11304;DHT22;5707;49.588;12.148;2022-09-16T10:00:42;19.90;82.40
11304;DHT22;5707;49.588;12.148;2022-09-16T10:03:23;19.90;82.10
11304;DHT22;5707;49.588;12.148;2022-09-16T10:06:02;19.90;84.70
11304;DHT22;5707;49.588;12.148;2022-09-16T10:08:42;20.00;85.50
11304;DHT22;5707;49.588;12.148;2022-09-16T10:11:26;20.30;86.20
11304;DHT22;5707;49.588;12.148;2022-09-16T10:14:18;20.50;72.40
11304;DHT22;5707;49.588;12.148;2022-09-16T10:17:02;20.40;73.50
11304;DHT22;5707;49.588;12.148;2022-09-16T10:19:49;20.30;65.60
11304;DHT22;5707;49.588;12.148;2022-09-16T10:22:31;19.90;71.80
11304;DHT22;5707;49.588;12.148;2022-09-16T10:25:20;19.80;67.70
11304;DHT22;5707;49.588;12.148;2022-09-16T10:28:03;19.80;66.60
11304;DHT22;5707;49.588;12.148;2022-09-16T10:30:45;19.90;70.60
11304;DHT22;5707;49.588;12.148;2022-09-16T10:33:28;19.90;69.10
11304;DHT22;5707;49.588;12.148;2022-09-16T10:36:09;20.00;64.60
11304;DHT22;5707;49.588;12.148;2022-09-16T10:38:51;20.30;62.40
11304;DHT22;5707;49.588;12.148;2022-09-16T10:41:32;20.40;62.50
11304;DHT22;5707;49.588;12.148;2022-09-16T10:44:14;20.20;65.40
11304;DHT22;5707;49.588;12.148;2022-09-16T10:46:56;20.00;68.70
11304;DHT22;5707;49.588;12.148;2022-09-16T10:49:37;19.80;62.90
11304;DHT22;5707;49.588;12.148;2022-09-16T10:52:20;19.50;62.50
11304;DHT22;5707;49.588;12.148;2022-09-16T10:55:11;19.20;69.90
11304;DHT22;5707;49.588;12.148;2022-09-16T10:58:06;19.10;71.20
11304;DHT22;5707;49.588;12.148;2022-09-16T11:00:47;18.90;72.90
11304;DHT22;5707;49.588;12.148;2022-09-16T11:03:36;18.60;80.10
11304;DHT22;5707;49.588;12.148;2022-09-16T11:06:26;18.60;92.80
11304;DHT22;5707;49.588;12.148;2022-09-16T11:09:09;19.00;98.40
11304;DHT22;5707;49.588;12.148;2022-09-16T11:11:55;19.30;91.90
11304;DHT22;5707;49.588;12.148;2022-09-16T11:14:40;19.20;84.40
11304;DHT22;5707;49.588;12.148;2022-09-16T11:17:31;18.80;82.70
11304;DHT22;5707;49.588;12.148;2022-09-16T11:23:15;17.10;99.90
11304;DHT22;5707;49.588;12.148;2022-09-16T11:26:01;16.60;99.90
11304;DHT22;5707;49.588;12.148;2022-09-16T11:28:56;16.20;99.90
11304;DHT22;5707;49.588;12.148;2022-09-16T11:31:42;16.00;99.90
11304;DHT22;5707;49.588;12.148;2022-09-16T11:34:32;16.00;99.90
11304;DHT22;5707;49.588;12.148;2022-09-16T11:37:16;16.50;99.90
11304;DHT22;5707;49.588;12.148;2022-09-16T11:40:02;17.10;99.90
11304;DHT22;5707;49.588;12.148;2022-09-16T11:42:48;17.50;99.90
11304;DHT22;5707;49.588;12.148;2022-09-16T11:45:41;17.80;99.90
11304;DHT22;5707;49.588;12.148;2022-09-16T11:48:31;18.10;99.90
11304;DHT22;5707;49.588;12.148;2022-09-16T11:51:20;18.50;99.90
11304;DHT22;5707;49.588;12.148;2022-09-16T11:54:07;18.70;99.90
11304;DHT22;5707;49.588;12.148;2022-09-16T11:56:52;18.70;99.90
11304;DHT22;5707;49.588;12.148;2022-09-16T11:59:34;18.90;99.90
11304;DHT22;5707;49.588;12.148;2022-09-16T12:02:18;19.10;99.90
11304;DHT22;5707;49.588;12.148;2022-09-16T12:05:01;19.00;95.70
11304;DHT22;5707;49.588;12.148;2022-09-16T12:07:43;19.10;94.40
11304;DHT22;5707;49.588;12.148;2022-09-16T12:10:25;19.00;96.20
11304;DHT22;5707;49.588;12.148;2022-09-16T12:13:07;19.20;95.80
11304;DHT22;5707;49.588;12.148;2022-09-16T12:15:49;19.30;99.90
11304;DHT22;5707;49.588;12.148;2022-09-16T12:18:30;19.10;98.60
11304;DHT22;5707;49.588;12.148;2022-09-16T12:21:13;18.80;98.30
11304;DHT22;5707;49.588;12.148;2022-09-16T12:23:57;18.30;98.20
11304;DHT22;5707;49.588;12.148;2022-09-16T12:26:40;17.60;99.90
11304;DHT22;5707;49.588;12.148;2022-09-16T12:29:24;17.30;99.90
11304;DHT22;5707;49.588;12.148;2022-09-16T12:32:07;17.60;99.90
11304;DHT22;5707;49.588;12.148;2022-09-16T12:34:51;18.10;99.90
11304;DHT22;5707;49.588;12.148;2022-09-16T12:37:35;18.20;99.90
11304;DHT22;5707;49.588;12.148;2022-09-16T12:40:16;18.10;99.90
11304;DHT22;5707;49.588;12.148;2022-09-16T12:43:03;17.90;99.90
11304;DHT22;5707;49.588;12.148;2022-09-16T12:46:00;17.90;99.90
11304;DHT22;5707;49.588;12.148;2022-09-16T12:48:50;17.70;99.90
11304;DHT22;5707;49.588;12.148;2022-09-16T12:54:41;17.40;99.90
11304;DHT22;5707;49.588;12.148;2022-09-16T12:57:28;17.30;99.90
11304;DHT22;5707;49.588;12.148;2022-09-16T13:00:27;17.10;99.90
11304;DHT22;5707;49.588;12.148;2022-09-16T13:03:12;17.00;99.90
11304;DHT22;5707;49.588;12.148;2022-09-16T13:05:53;17.10;99.90
11304;DHT22;5707;49.588;12.148;2022-09-16T13:08:34;17.40;99.90
11304;DHT22;5707;49.588;12.148;2022-09-16T13:11:16;17.50;99.90
11304;DHT22;5707;49.588;12.148;2022-09-16T13:13:58;17.30;99.90
11304;DHT22;5707;49.588;12.148;2022-09-16T13:16:38;17.00;99.90
11304;DHT22;5707;49.588;12.148;2022-09-16T13:19:29;17.00;99.90
11304;DHT22;5707;49.588;12.148;2022-09-16T13:22:16;17.10;99.90
11304;DHT22;5707;49.588;12.148;2022-09-16T13:24:56;17.00;99.90
11304;DHT22;5707;49.588;12.148;2022-09-16T13:27:37;17.00;99.90
11304;DHT22;5707;49.588;12.148;2022-09-16T13:30:29;16.80;99.90
11304;DHT22;5707;49.588;12.148;2022-09-16T13:33:23;16.60;99.90
11304;DHT22;5707;49.588;12.148;2022-09-16T13:36:14;16.40;99.90
11304;DHT22;5707;49.588;12.148;2022-09-16T13:38:55;16.20;99.90
11304;DHT22;5707;49.588;12.148;2022-09-16T13:41:37;16.10;99.90
11304;DHT22;5707;49.588;12.148;2022-09-16T13:44:28;16.20;99.90
11304;DHT22;5707;49.588;12.148;2022-09-16T13:47:27;16.40;99.90
11304;DHT22;5707;49.588;12.148;2022-09-16T13:50:11;16.70;99.90
11304;DHT22;5707;49.588;12.148;2022-09-16T13:52:52;17.00;99.90
11304;DHT22;5707;49.588;12.148;2022-09-16T13:55:45;17.30;99.90
11304;DHT22;5707;49.588;12.148;2022-09-16T13:58:26;17.20;99.90
11304;DHT22;5707;49.588;12.148;2022-09-16T14:01:09;16.90;99.90
11304;DHT22;5707;49.588;12.148;2022-09-16T14:03:53;16.60;99.90
11304;DHT22;5707;49.588;12.148;2022-09-16T14:06:42;16.70;99.90
11304;DHT22;5707;49.588;12.148;2022-09-16T14:09:27;16.60;99.90
11304;DHT22;5707;49.588;12.148;2022-09-16T14:12:12;16.70;99.90
11304;DHT22;5707;49.588;12.148;2022-09-16T14:14:57;16.70;99.90
11304;DHT22;5707;49.588;12.148;2022-09-16T14:17:49;16.90;99.90
11304;DHT22;5707;49.588;12.148;2022-09-16T14:20:30;16.80;99.90
11304;DHT22;5707;49.588;12.148;2022-09-16T14:23:14;16.50;99.90
11304;DHT22;5707;49.588;12.148;2022-09-16T14:25:55;16.40;99.90
11304;DHT22;5707;49.588;12.148;2022-09-16T14:28:34;16.30;99.90
11304;DHT22;5707;49.588;12.148;2022-09-16T14:31:15;16.10;99.90
11304;DHT22;5707;49.588;12.148;2022-09-16T14:33:56;16.10;99.90
11304;DHT22;5707;49.588;12.148;2022-09-16T14:36:39;16.20;99.90
11304;DHT22;5707;49.588;12.148;2022-09-16T14:39:20;16.50;99.90
11304;DHT22;5707;49.588;12.148;2022-09-16T14:42:03;17.00;99.90
11304;DHT22;5707;49.588;12.148;2022-09-16T14:44:45;17.20;99.90
11304;DHT22;5707;49.588;12.148;2022-09-16T14:47:27;17.10;99.90
11304;DHT22;5707;49.588;12.148;2022-09-16T14:50:11;17.20;99.90
11304;DHT22;5707;49.588;12.148;2022-09-16T14:52:53;17.40;99.90
11304;DHT22;5707;49.588;12.148;2022-09-16T14:55:34;17.50;99.90
11304;DHT22;5707;49.588;12.148;2022-09-16T14:58:18;17.90;99.90
11304;DHT22;5707;49.588;12.148;2022-09-16T15:01:00;18.10;99.30
11304;DHT22;5707;49.588;12.148;2022-09-16T15:03:42;18.20;97.00
11304;DHT22;5707;49.588;12.148;2022-09-16T15:06:23;18.50;95.60
11304;DHT22;5707;49.588;12.148;2022-09-16T15:09:05;18.50;91.60
11304;DHT22;5707;49.588;12.148;2022-09-16T15:11:47;18.20;92.40
11304;DHT22;5707;49.588;12.148;2022-09-16T15:14:28;17.60;99.30
11304;DHT22;5707;49.588;12.148;2022-09-16T15:17:08;17.00;99.90
11304;DHT22;5707;49.588;12.148;2022-09-16T15:19:49;16.60;99.90
11304;DHT22;5707;49.588;12.148;2022-09-16T15:22:31;16.30;99.90
11304;DHT22;5707;49.588;12.148;2022-09-16T15:25:17;16.10;99.90
11304;DHT22;5707;49.588;12.148;2022-09-16T15:28:04;16.10;99.90
11304;DHT22;5707;49.588;12.148;2022-09-16T15:30:46;16.20;99.90
11304;DHT22;5707;49.588;12.148;2022-09-16T15:33:33;16.10;99.90
11304;DHT22;5707;49.588;12.148;2022-09-16T15:36:30;16.10;99.90
11304;DHT22;5707;49.588;12.148;2022-09-16T15:39:22;16.10;99.90
11304;DHT22;5707;49.588;12.148;2022-09-16T15:42:13;16.00;99.90
11304;DHT22;5707;49.588;12.148;2022-09-16T15:44:56;15.80;99.90
11304;DHT22;5707;49.588;12.148;2022-09-16T15:47:51;15.50;99.90
11304;DHT22;5707;49.588;12.148;2022-09-16T15:50:41;15.20;99.90
11304;DHT22;5707;49.588;12.148;2022-09-16T15:53:34;15.10;99.90
11304;DHT22;5707;49.588;12.148;2022-09-16T15:56:17;14.90;99.90
11304;DHT22;5707;49.588;12.148;2022-09-16T15:59:01;14.70;99.90
11304;DHT22;5707;49.588;12.148;2022-09-16T16:01:44;14.70;99.90
11304;DHT22;5707;49.588;12.148;2022-09-16T16:04:26;14.80;99.90
11304;DHT22;5707;49.588;12.148;2022-09-16T16:07:07;14.90;99.90
11304;DHT22;5707;49.588;12.148;2022-09-16T16:09:46;15.00;99.90
11304;DHT22;5707;49.588;12.148;2022-09-16T16:12:26;14.90;99.90
11304;DHT22;5707;49.588;12.148;2022-09-16T16:15:06;14.70;99.90
11304;DHT22;5707;49.588;12.148;2022-09-16T16:17:46;14.60;99.90
11304;DHT22;5707;49.588;12.148;2022-09-16T16:20:27;14.50;99.90
11304;DHT22;5707;49.588;12.148;2022-09-16T16:23:07;14.20;99.90
11304;DHT22;5707;49.588;12.148;2022-09-16T16:25:50;14.00;99.90
11304;DHT22;5707;49.588;12.148;2022-09-16T16:28:30;13.80;99.90
11304;DHT22;5707;49.588;12.148;2022-09-16T16:31:11;13.80;99.90
11304;DHT22;5707;49.588;12.148;2022-09-16T16:33:51;13.80;99.90
11304;DHT22;5707;49.588;12.148;2022-09-16T16:36:31;13.80;99.90
11304;DHT22;5707;49.588;12.148;2022-09-16T16:39:11;14.00;99.90
11304;DHT22;5707;49.588;12.148;2022-09-16T16:41:51;13.90;99.90
11304;DHT22;5707;49.588;12.148;2022-09-16T16:44:31;13.60;99.90
11304;DHT22;5707;49.588;12.148;2022-09-16T16:47:12;13.40;99.90
11304;DHT22;5707;49.588;12.148;2022-09-16T16:49:52;13.20;99.90
11304;DHT22;5707;49.588;12.148;2022-09-16T16:52:32;13.10;99.90
11304;DHT22;5707;49.588;12.148;2022-09-16T16:55:11;12.80;99.90
11304;DHT22;5707;49.588;12.148;2022-09-16T16:57:51;12.50;99.90
11304;DHT22;5707;49.588;12.148;2022-09-16T17:00:31;12.20;99.90
11304;DHT22;5707;49.588;12.148;2022-09-16T17:03:11;12.00;99.90
11304;DHT22;5707;49.588;12.148;2022-09-16T17:05:51;11.90;99.90
11304;DHT22;5707;49.588;12.148;2022-09-16T17:08:31;11.90;99.90
11304;DHT22;5707;49.588;12.148;2022-09-16T17:11:11;11.90;99.90
11304;DHT22;5707;49.588;12.148;2022-09-16T17:13:53;11.90;99.90
11304;DHT22;5707;49.588;12.148;2022-09-16T17:16:35;11.90;99.90